createdAt,value
2023-04-20T00:00:07.479Z,22.91
2023-04-20T00:01:07.504Z,22.91
2023-04-20T00:02:07.649Z,22.90
2023-04-20T00:03:07.816Z,22.90
2023-04-20T00:04:07.744Z,22.89
2023-04-20T00:05:07.788Z,22.88
2023-04-20T00:06:07.794Z,22.88
2023-04-20T00:07:07.859Z,22.88
2023-04-20T00:08:07.896Z,22.89
2023-04-20T00:09:07.969Z,22.90
2023-04-20T00:10:08.026Z,22.89
2023-04-20T00:11:08.021Z,22.89
2023-04-20T00:12:08.050Z,22.89
2023-04-20T00:13:08.133Z,22.89
2023-04-20T00:14:08.207Z,22.90
2023-04-20T00:15:08.225Z,22.89
2023-04-20T00:16:08.288Z,22.88
2023-04-20T00:17:08.472Z,22.90
2023-04-20T00:18:08.523Z,22.89
2023-04-20T00:19:08.452Z,22.89
2023-04-20T00:20:08.526Z,22.89
2023-04-20T00:21:08.566Z,22.88
2023-04-20T00:22:08.612Z,22.88
2023-04-20T00:23:08.674Z,22.89
2023-04-20T00:24:08.790Z,22.89
2023-04-20T00:25:08.769Z,22.89
2023-04-20T00:26:08.836Z,22.90
2023-04-20T00:27:08.930Z,22.90
2023-04-20T00:28:08.946Z,22.91
2023-04-20T00:29:09.059Z,22.90
2023-04-20T00:30:09.068Z,22.91
2023-04-20T00:31:09.187Z,22.91
2023-04-20T00:32:09.199Z,22.91
2023-04-20T00:33:09.239Z,22.92
2023-04-20T00:34:09.338Z,22.92
2023-04-20T00:35:09.354Z,22.91
2023-04-20T00:36:09.429Z,22.92
2023-04-20T00:37:09.498Z,22.92
2023-04-20T00:38:09.541Z,22.92
2023-04-20T00:39:09.623Z,22.92
2023-04-20T00:40:09.692Z,22.92
2023-04-20T00:41:09.771Z,22.92
2023-04-20T00:42:09.831Z,22.93
2023-04-20T00:43:09.869Z,22.92
2023-04-20T00:44:09.931Z,22.92
2023-04-20T00:45:10.017Z,22.93
2023-04-20T00:46:10.088Z,22.92
2023-04-20T00:47:10.124Z,22.93
2023-04-20T00:48:10.211Z,22.93
2023-04-20T00:49:10.224Z,22.93
2023-04-20T00:50:10.298Z,22.93
2023-04-20T00:51:10.366Z,22.93
2023-04-20T00:52:10.414Z,22.94
2023-04-20T00:53:10.509Z,22.94
2023-04-20T00:54:10.568Z,22.95
2023-04-20T00:55:10.591Z,22.95
2023-04-20T00:56:10.653Z,22.96
2023-04-20T00:57:10.670Z,22.96
2023-04-20T00:58:10.726Z,22.96
2023-04-20T00:59:10.826Z,22.96
2023-04-20T01:00:10.820Z,22.96
2023-04-20T01:01:10.957Z,22.97
2023-04-20T01:02:11.100Z,22.97
2023-04-20T01:03:11.230Z,22.97
2023-04-20T01:04:11.308Z,22.97
2023-04-20T01:05:11.138Z,22.98
2023-04-20T01:06:11.297Z,22.97
2023-04-20T01:07:11.316Z,22.98
2023-04-20T01:08:11.386Z,22.97
2023-04-20T01:09:11.471Z,22.98
2023-04-20T01:10:11.478Z,22.98
2023-04-20T01:11:11.514Z,22.98
2023-04-20T01:12:11.651Z,22.98
2023-04-20T01:13:11.992Z,22.97
2023-04-20T01:14:11.727Z,22.98
2023-04-20T01:15:11.771Z,22.98
2023-04-20T01:16:11.920Z,22.98
2023-04-20T01:17:11.912Z,22.98
2023-04-20T01:18:11.989Z,22.97
2023-04-20T01:19:12.033Z,22.97
2023-04-20T01:20:12.082Z,22.97
2023-04-20T01:21:12.169Z,22.97
2023-04-20T01:22:12.201Z,22.97
2023-04-20T01:23:12.276Z,22.98
2023-04-20T01:24:12.354Z,22.99
2023-04-20T01:25:12.431Z,22.98
2023-04-20T01:26:12.454Z,22.98
2023-04-20T01:27:12.516Z,22.99
2023-04-20T01:28:12.567Z,22.99
2023-04-20T01:29:12.637Z,22.99
2023-04-20T01:30:12.732Z,22.99
2023-04-20T01:31:12.819Z,22.98
2023-04-20T01:32:12.815Z,22.98
2023-04-20T01:33:12.876Z,22.97
2023-04-20T01:34:12.956Z,22.98
2023-04-20T01:35:13.031Z,22.98
2023-04-20T01:36:13.036Z,22.98
2023-04-20T01:37:13.169Z,22.98
2023-04-20T01:38:13.177Z,22.98
2023-04-20T01:39:13.253Z,22.97
2023-04-20T01:40:13.364Z,22.97
2023-04-20T01:41:13.341Z,22.98
2023-04-20T01:42:13.399Z,22.98
2023-04-20T01:43:13.482Z,22.99
2023-04-20T01:44:13.501Z,22.98
2023-04-20T01:45:13.580Z,22.98
2023-04-20T01:46:13.697Z,22.98
2023-04-20T01:47:13.671Z,22.98
2023-04-20T01:48:13.749Z,22.99
2023-04-20T01:49:14.076Z,22.99
2023-04-20T01:50:13.852Z,22.99
2023-04-20T01:51:13.950Z,22.99
2023-04-20T01:52:13.969Z,23.00
2023-04-20T01:53:14.085Z,23.00
2023-04-20T01:54:14.107Z,23.00
2023-04-20T01:55:14.136Z,23.00
2023-04-20T01:56:14.207Z,23.00
2023-04-20T01:57:14.239Z,23.00
2023-04-20T01:58:14.332Z,22.99
2023-04-20T01:59:14.671Z,23.00
2023-04-20T02:00:14.429Z,22.99
2023-04-20T02:01:14.544Z,22.99
2023-04-20T02:02:14.599Z,23.00
2023-04-20T02:03:14.798Z,23.01
2023-04-20T02:04:14.793Z,23.01
2023-04-20T02:05:14.755Z,22.99
2023-04-20T02:06:14.828Z,23.00
2023-04-20T02:07:14.972Z,23.00
2023-04-20T02:08:14.976Z,23.01
2023-04-20T02:09:15.155Z,23.01
2023-04-20T02:10:15.059Z,23.00
2023-04-20T02:11:15.148Z,23.01
2023-04-20T02:12:15.183Z,23.00
2023-04-20T02:13:15.244Z,23.01
2023-04-20T02:14:15.372Z,23.00
2023-04-20T02:15:15.396Z,23.01
2023-04-20T02:16:15.420Z,23.01
2023-04-20T02:17:15.560Z,23.01
2023-04-20T02:18:15.565Z,23.01
2023-04-20T02:19:15.755Z,23.01
2023-04-20T02:20:15.657Z,23.01
2023-04-20T02:21:15.727Z,23.02
2023-04-20T02:22:15.809Z,23.01
2023-04-20T02:23:15.850Z,23.02
2023-04-20T02:24:15.916Z,23.02
2023-04-20T02:25:16.001Z,23.01
2023-04-20T02:26:16.013Z,23.02
2023-04-20T02:27:16.084Z,23.02
2023-04-20T02:28:16.143Z,23.03
2023-04-20T02:29:16.389Z,23.02
2023-04-20T02:30:16.315Z,23.02
2023-04-20T02:31:16.384Z,23.01
2023-04-20T02:32:16.410Z,23.01
2023-04-20T02:33:16.443Z,23.02
2023-04-20T02:34:16.510Z,23.01
2023-04-20T02:35:16.583Z,23.01
2023-04-20T02:36:16.654Z,23.01
2023-04-20T02:37:16.752Z,23.02
2023-04-20T02:38:16.796Z,23.02
2023-04-20T02:39:17.028Z,23.01
2023-04-20T02:40:16.933Z,23.01
2023-04-20T02:41:16.967Z,23.01
2023-04-20T02:42:16.989Z,23.02
2023-04-20T02:43:17.073Z,23.01
2023-04-20T02:44:17.545Z,23.01
2023-04-20T02:45:17.189Z,23.00
2023-04-20T02:46:17.261Z,23.01
2023-04-20T02:47:17.408Z,23.02
2023-04-20T02:48:17.388Z,23.01
2023-04-20T02:49:17.552Z,23.01
2023-04-20T02:50:17.487Z,23.02
2023-04-20T02:51:17.547Z,23.01
2023-04-20T02:52:17.625Z,23.00
2023-04-20T02:53:17.646Z,23.00
2023-04-20T02:54:17.769Z,23.01
2023-04-20T02:55:17.783Z,23.01
2023-04-20T02:56:17.852Z,23.02
2023-04-20T02:57:17.889Z,23.02
2023-04-20T02:58:17.946Z,23.02
2023-04-20T02:59:18.134Z,23.03
2023-04-20T03:00:18.094Z,23.03
2023-04-20T03:01:18.108Z,23.03
2023-04-20T03:02:18.282Z,23.03
2023-04-20T03:03:18.364Z,23.03
2023-04-20T03:04:18.327Z,23.03
2023-04-20T03:05:18.327Z,23.03
2023-04-20T03:06:18.407Z,23.03
2023-04-20T03:07:18.472Z,23.03
2023-04-20T03:08:18.498Z,23.04
2023-04-20T03:09:18.828Z,23.04
2023-04-20T03:10:18.625Z,23.04
2023-04-20T03:11:18.653Z,23.04
2023-04-20T03:12:18.773Z,23.04
2023-04-20T03:13:18.789Z,23.04
2023-04-20T03:14:18.911Z,23.04
2023-04-20T03:15:18.929Z,23.03
2023-04-20T03:16:18.990Z,23.03
2023-04-20T03:17:19.059Z,23.04
2023-04-20T03:18:19.143Z,23.03
2023-04-20T03:19:19.259Z,23.04
2023-04-20T03:20:19.173Z,23.04
2023-04-20T03:21:19.217Z,23.03
2023-04-20T03:22:19.342Z,23.03
2023-04-20T03:23:19.354Z,23.03
2023-04-20T03:24:19.543Z,23.03
2023-04-20T03:25:19.462Z,23.04
2023-04-20T03:26:19.494Z,23.04
2023-04-20T03:27:19.565Z,23.04
2023-04-20T03:28:19.664Z,23.04
2023-04-20T03:29:19.841Z,23.03
2023-04-20T03:30:19.734Z,23.04
2023-04-20T03:31:19.782Z,23.04
2023-04-20T03:32:19.966Z,23.04
2023-04-20T03:33:19.876Z,23.04
2023-04-20T03:34:19.961Z,23.03
2023-04-20T03:35:19.995Z,23.03
2023-04-20T03:36:20.145Z,23.03
2023-04-20T03:37:20.111Z,23.03
2023-04-20T03:38:20.160Z,23.03
2023-04-20T03:39:20.361Z,23.03
2023-04-20T03:40:20.277Z,23.03
2023-04-20T03:41:20.331Z,23.03
2023-04-20T03:42:20.397Z,23.04
2023-04-20T03:43:20.433Z,23.03
2023-04-20T03:44:20.499Z,23.04
2023-04-20T03:45:20.559Z,23.03
2023-04-20T03:46:22.076Z,23.04
2023-04-20T03:47:20.882Z,23.04
2023-04-20T03:48:20.929Z,23.04
2023-04-20T03:49:20.983Z,23.05
2023-04-20T03:50:21.060Z,23.05
2023-04-20T03:51:21.175Z,23.05
2023-04-20T03:52:21.149Z,23.04
2023-04-20T03:53:21.247Z,23.04
2023-04-20T03:54:21.278Z,23.05
2023-04-20T03:55:21.301Z,23.05
2023-04-20T03:56:21.399Z,23.05
2023-04-20T03:57:21.458Z,23.05
2023-04-20T03:58:21.505Z,23.04
2023-04-20T03:59:21.562Z,23.05
2023-04-20T04:00:21.621Z,23.05
2023-04-20T04:01:21.698Z,23.05
2023-04-20T04:02:21.838Z,23.05
2023-04-20T04:03:21.971Z,23.05
2023-04-20T04:04:22.408Z,23.06
2023-04-20T04:05:22.773Z,23.05
2023-04-20T04:06:22.072Z,23.06
2023-04-20T04:07:22.085Z,23.06
2023-04-20T04:08:22.172Z,23.06
2023-04-20T04:09:22.190Z,23.05
2023-04-20T04:10:22.207Z,23.06
2023-04-20T04:11:22.293Z,23.05
2023-04-20T04:12:22.322Z,23.05
2023-04-20T04:13:22.374Z,23.05
2023-04-20T04:14:22.417Z,23.06
2023-04-20T04:15:22.499Z,23.05
2023-04-20T04:16:22.602Z,23.05
2023-04-20T04:17:22.713Z,23.05
2023-04-20T04:18:22.699Z,23.05
2023-04-20T04:19:23.151Z,23.06
2023-04-20T04:20:22.803Z,23.06
2023-04-20T04:21:22.830Z,23.06
2023-04-20T04:22:22.901Z,23.06
2023-04-20T04:23:22.937Z,23.06
2023-04-20T04:24:23.017Z,23.06
2023-04-20T04:25:23.045Z,23.05
2023-04-20T04:26:23.155Z,23.05
2023-04-20T04:27:23.156Z,23.06
2023-04-20T04:28:23.262Z,23.05
2023-04-20T04:29:24.115Z,23.05
2023-04-20T04:30:23.343Z,23.05
2023-04-20T04:31:23.410Z,23.05
2023-04-20T04:32:23.483Z,23.06
2023-04-20T04:33:23.535Z,23.05
2023-04-20T04:34:23.577Z,23.06
2023-04-20T04:35:23.627Z,23.05
2023-04-20T04:36:23.672Z,23.05
2023-04-20T04:37:23.739Z,23.05
2023-04-20T04:38:23.794Z,23.06
2023-04-20T04:39:24.223Z,23.06
2023-04-20T04:40:23.909Z,23.06
2023-04-20T04:41:23.983Z,23.05
2023-04-20T04:42:24.015Z,23.05
2023-04-20T04:43:24.061Z,23.05
2023-04-20T04:44:24.172Z,23.06
2023-04-20T04:45:24.167Z,23.06
2023-04-20T04:46:24.384Z,23.06
2023-04-20T04:47:24.302Z,23.05
2023-04-20T04:48:24.324Z,23.05
2023-04-20T04:49:24.395Z,23.05
2023-04-20T04:50:24.466Z,23.05
2023-04-20T04:51:24.502Z,23.06
2023-04-20T04:52:24.554Z,23.05
2023-04-20T04:53:24.636Z,23.05
2023-04-20T04:54:24.691Z,23.05
2023-04-20T04:55:24.712Z,23.05
2023-04-20T04:56:24.801Z,23.05
2023-04-20T04:57:24.844Z,23.05
2023-04-20T04:58:24.948Z,23.06
2023-04-20T04:59:24.966Z,23.05
2023-04-20T05:00:25.011Z,23.06
2023-04-20T05:01:25.137Z,23.06
2023-04-20T05:02:25.433Z,23.06
2023-04-20T05:03:25.323Z,23.06
2023-04-20T05:04:25.318Z,23.06
2023-04-20T05:05:25.276Z,23.06
2023-04-20T05:06:25.344Z,23.06
2023-04-20T05:07:25.411Z,23.06
2023-04-20T05:08:25.493Z,23.07
2023-04-20T05:09:25.535Z,23.06
2023-04-20T05:10:25.595Z,23.06
2023-04-20T05:11:25.638Z,23.06
2023-04-20T05:12:25.686Z,23.05
2023-04-20T05:13:25.756Z,23.05
2023-04-20T05:14:25.796Z,23.06
2023-04-20T05:15:25.881Z,23.06
2023-04-20T05:16:25.960Z,23.06
2023-04-20T05:17:26.088Z,23.06
2023-04-20T05:18:26.034Z,23.06
2023-04-20T05:19:26.115Z,23.06
2023-04-20T05:20:26.132Z,23.06
2023-04-20T05:21:26.189Z,23.06
2023-04-20T05:22:26.263Z,23.06
2023-04-20T05:23:27.101Z,23.06
2023-04-20T05:24:26.361Z,23.05
2023-04-20T05:25:26.419Z,23.06
2023-04-20T05:26:26.471Z,23.06
2023-04-20T05:27:26.524Z,23.06
2023-04-20T05:28:26.593Z,23.05
2023-04-20T05:29:27.163Z,23.06
2023-04-20T05:30:26.671Z,23.06
2023-04-20T05:31:26.886Z,23.07
2023-04-20T05:32:26.936Z,23.07
2023-04-20T05:33:26.885Z,23.09
2023-04-20T05:34:27.107Z,23.07
2023-04-20T05:35:26.919Z,23.08
2023-04-20T05:36:27.044Z,23.11
2023-04-20T05:37:27.011Z,23.14
2023-04-20T05:38:27.639Z,23.16
2023-04-20T05:39:27.188Z,23.19
2023-04-20T05:40:27.162Z,23.19
2023-04-20T05:41:27.260Z,23.19
2023-04-20T05:42:27.326Z,23.21
2023-04-20T05:43:27.356Z,23.23
2023-04-20T05:44:27.661Z,23.19
2023-04-20T05:45:27.514Z,23.13
2023-04-20T05:46:27.698Z,23.12
2023-04-20T05:47:27.549Z,23.12
2023-04-20T05:48:29.700Z,23.12
2023-04-20T05:49:28.652Z,23.11
2023-04-20T05:50:27.697Z,23.11
2023-04-20T05:51:27.832Z,23.13
2023-04-20T05:52:27.759Z,23.14
2023-04-20T05:53:28.605Z,23.16
2023-04-20T05:54:27.933Z,23.15
2023-04-20T05:55:27.954Z,23.17
2023-04-20T05:56:28.593Z,23.18
2023-04-20T05:57:28.069Z,23.19
2023-04-20T05:58:28.096Z,23.20
2023-04-20T05:59:28.220Z,23.21
2023-04-20T06:00:28.170Z,23.22
2023-04-20T06:01:28.303Z,23.23
2023-04-20T06:02:28.396Z,23.24
2023-04-20T06:03:28.653Z,23.24
2023-04-20T06:04:28.610Z,23.25
2023-04-20T06:05:28.822Z,23.25
2023-04-20T06:06:28.476Z,23.25
2023-04-20T06:07:28.571Z,23.25
2023-04-20T06:08:28.598Z,23.26
2023-04-20T06:09:28.657Z,23.27
2023-04-20T06:10:28.842Z,23.29
2023-04-20T06:11:28.721Z,23.29
2023-04-20T06:12:28.798Z,23.31
2023-04-20T06:13:28.884Z,23.33
2023-04-20T06:14:28.936Z,23.35
2023-04-20T06:15:28.900Z,23.39
2023-04-20T06:16:29.097Z,23.40
2023-04-20T06:17:28.998Z,23.43
2023-04-20T06:18:29.112Z,23.47
2023-04-20T06:19:29.052Z,23.50
2023-04-20T06:20:29.180Z,23.53
2023-04-20T06:21:29.093Z,23.56
2023-04-20T06:22:29.102Z,23.59
2023-04-20T06:23:29.183Z,23.63
2023-04-20T06:24:29.172Z,23.66
2023-04-20T06:25:29.185Z,23.69
2023-04-20T06:26:29.188Z,23.73
2023-04-20T06:27:29.256Z,23.74
2023-04-20T06:28:29.375Z,23.78
2023-04-20T06:29:29.443Z,23.82
2023-04-20T06:30:29.545Z,23.84
2023-04-20T06:31:29.775Z,23.88
2023-04-20T06:32:32.738Z,23.90
2023-04-20T06:33:29.666Z,23.92
2023-04-20T06:34:29.697Z,23.94
2023-04-20T06:35:29.704Z,23.98
2023-04-20T06:36:29.620Z,24.01
2023-04-20T06:37:29.647Z,24.05
2023-04-20T06:38:29.676Z,24.04
2023-04-20T06:39:29.624Z,23.96
2023-04-20T06:40:29.650Z,23.92
2023-04-20T06:41:29.601Z,23.89
2023-04-20T06:42:29.586Z,23.88
2023-04-20T06:43:29.599Z,23.89
2023-04-20T06:44:29.625Z,23.89
2023-04-20T06:45:29.771Z,23.91
2023-04-20T06:46:29.668Z,23.94
2023-04-20T06:47:29.608Z,23.96
2023-04-20T06:48:32.863Z,23.99
2023-04-20T06:49:30.156Z,24.02
2023-04-20T06:50:29.592Z,24.05
2023-04-20T06:51:29.536Z,24.08
2023-04-20T06:52:29.667Z,24.11
2023-04-20T06:53:29.524Z,24.14
2023-04-20T06:54:29.651Z,24.17
2023-04-20T06:55:29.515Z,24.20
2023-04-20T06:56:29.527Z,24.24
2023-04-20T06:57:29.539Z,24.26
2023-04-20T06:58:29.494Z,24.28
2023-04-20T06:59:29.655Z,24.29
2023-04-20T07:00:29.524Z,24.31
2023-04-20T07:01:29.541Z,24.34
2023-04-20T07:02:29.527Z,24.35
2023-04-20T07:03:29.550Z,24.39
2023-04-20T07:04:29.555Z,24.41
2023-04-20T07:05:29.440Z,24.45
2023-04-20T07:06:29.619Z,24.46
2023-04-20T07:07:29.445Z,24.48
2023-04-20T07:08:29.411Z,24.50
2023-04-20T07:09:29.486Z,24.52
2023-04-20T07:10:29.453Z,24.53
2023-04-20T07:11:29.420Z,24.54
2023-04-20T07:12:29.424Z,24.55
2023-04-20T07:13:33.238Z,24.58
2023-04-20T07:14:29.711Z,24.58
2023-04-20T07:15:29.390Z,24.60
2023-04-20T07:16:29.405Z,24.61
2023-04-20T07:17:29.406Z,24.61
2023-04-20T07:18:29.375Z,24.62
2023-04-20T07:19:29.362Z,24.63
2023-04-20T07:20:29.334Z,24.63
2023-04-20T07:21:29.349Z,24.65
2023-04-20T07:22:29.362Z,24.67
2023-04-20T07:23:29.307Z,24.66
2023-04-20T07:24:29.324Z,24.67
2023-04-20T07:25:29.311Z,24.67
2023-04-20T07:26:29.348Z,24.67
2023-04-20T07:27:29.276Z,24.70
2023-04-20T07:28:29.278Z,24.71
2023-04-20T07:29:29.703Z,24.73
2023-04-20T07:30:29.280Z,24.74
2023-04-20T07:31:29.295Z,24.77
2023-04-20T07:32:29.331Z,24.77
2023-04-20T07:33:29.426Z,24.79
2023-04-20T07:34:29.708Z,24.81
2023-04-20T07:35:29.293Z,24.83
2023-04-20T07:36:29.399Z,24.85
2023-04-20T07:37:29.397Z,24.86
2023-04-20T07:38:29.515Z,24.86
2023-04-20T07:39:29.505Z,24.85
2023-04-20T07:40:29.555Z,24.84
2023-04-20T07:41:29.644Z,24.81
2023-04-20T07:42:29.811Z,24.78
2023-04-20T07:43:29.652Z,24.75
2023-04-20T07:44:30.160Z,24.73
2023-04-20T07:45:29.764Z,24.70
2023-04-20T07:46:29.770Z,24.67
2023-04-20T07:47:29.930Z,24.65
2023-04-20T07:48:29.915Z,24.62
2023-04-20T07:49:30.685Z,24.60
2023-04-20T07:50:29.989Z,24.58
2023-04-20T07:51:30.064Z,24.57
2023-04-20T07:52:30.140Z,24.54
2023-04-20T07:53:30.232Z,24.52
2023-04-20T07:54:30.348Z,24.51
2023-04-20T07:55:30.290Z,24.49
2023-04-20T07:56:30.401Z,24.47
2023-04-20T07:57:30.511Z,24.46
2023-04-20T07:58:30.499Z,24.45
2023-04-20T07:59:30.559Z,24.44
2023-04-20T08:00:30.632Z,24.43
2023-04-20T08:01:30.662Z,24.41
2023-04-20T08:02:30.932Z,24.40
2023-04-20T08:03:31.067Z,24.38
2023-04-20T08:04:31.473Z,24.38
2023-04-20T08:05:31.232Z,24.36
2023-04-20T08:06:31.011Z,24.35
2023-04-20T08:07:31.175Z,24.35
2023-04-20T08:08:31.194Z,24.34
2023-04-20T08:09:31.167Z,24.33
2023-04-20T08:10:31.222Z,24.32
2023-04-20T08:11:31.259Z,24.31
2023-04-20T08:12:31.328Z,24.31
2023-04-20T08:13:31.367Z,24.30
2023-04-20T08:14:31.423Z,24.30
2023-04-20T08:15:31.735Z,24.29
2023-04-20T08:16:31.629Z,24.29
2023-04-20T08:17:31.662Z,24.28
2023-04-20T08:18:31.650Z,24.27
2023-04-20T08:19:31.656Z,24.27
2023-04-20T08:21:31.743Z,24.24
2023-04-20T08:22:31.771Z,24.24
2023-04-20T08:23:31.831Z,24.24
2023-04-20T08:24:31.855Z,24.25
2023-04-20T08:25:31.974Z,24.26
2023-04-20T08:26:32.046Z,24.26
2023-04-20T08:27:32.068Z,24.26
2023-04-20T08:28:33.748Z,24.24
2023-04-20T08:29:32.668Z,24.21
2023-04-20T08:30:32.172Z,24.17
2023-04-20T08:31:32.160Z,24.14
2023-04-20T08:32:32.235Z,24.10
2023-04-20T08:33:32.137Z,24.06
2023-04-20T08:34:32.190Z,24.01
2023-04-20T08:35:32.190Z,23.97
2023-04-20T08:36:32.192Z,23.94
2023-04-20T08:37:33.107Z,23.90
2023-04-20T08:38:34.254Z,23.87
2023-04-20T08:39:32.296Z,23.84
2023-04-20T08:40:32.245Z,23.82
2023-04-20T08:41:32.271Z,23.80
2023-04-20T08:42:33.168Z,23.76
2023-04-20T08:43:32.296Z,23.74
2023-04-20T08:44:32.685Z,23.75
2023-04-20T08:45:32.503Z,23.76
2023-04-20T08:46:32.514Z,23.78
2023-04-20T08:47:32.426Z,23.80
2023-04-20T08:48:33.691Z,23.82
2023-04-20T08:49:32.726Z,23.84
2023-04-20T08:50:33.203Z,23.86
2023-04-20T08:51:32.632Z,23.88
2023-04-20T08:52:32.532Z,23.89
2023-04-20T08:53:32.539Z,23.91
2023-04-20T08:54:35.167Z,23.93
2023-04-20T08:55:32.525Z,23.92
2023-04-20T08:56:32.542Z,23.95
2023-04-20T08:57:32.504Z,23.97
2023-04-20T08:58:32.496Z,24.00
2023-04-20T08:59:32.571Z,24.02
2023-04-20T09:00:32.546Z,24.05
2023-04-20T09:01:35.489Z,24.08
2023-04-20T09:02:32.621Z,24.11
2023-04-20T09:03:32.714Z,24.15
2023-04-20T09:04:32.787Z,24.18
2023-04-20T09:05:32.533Z,24.21
2023-04-20T09:06:32.452Z,24.26
2023-04-20T09:07:32.438Z,24.30
2023-04-20T09:08:32.458Z,24.33
2023-04-20T09:09:32.428Z,24.36
2023-04-20T09:10:32.418Z,24.39
2023-04-20T09:11:32.606Z,24.42
2023-04-20T09:12:32.427Z,24.45
2023-04-20T09:13:32.401Z,24.47
2023-04-20T09:14:33.188Z,24.49
2023-04-20T09:15:32.387Z,24.53
2023-04-20T09:16:32.476Z,24.54
2023-04-20T09:17:32.397Z,24.57
2023-04-20T09:18:32.363Z,24.60
2023-04-20T09:19:32.349Z,24.61
2023-04-20T09:20:32.354Z,24.64
2023-04-20T09:21:32.337Z,24.65
2023-04-20T09:22:32.322Z,24.67
2023-04-20T09:23:32.312Z,24.68
2023-04-20T09:24:32.317Z,24.69
2023-04-20T09:25:32.328Z,24.70
2023-04-20T09:26:32.357Z,24.70
2023-04-20T09:27:32.295Z,24.72
2023-04-20T09:28:32.273Z,24.75
2023-04-20T09:29:32.283Z,24.78
2023-04-20T09:30:32.331Z,24.79
2023-04-20T09:31:32.427Z,24.80
2023-04-20T09:32:32.282Z,24.82
2023-04-20T09:33:32.317Z,24.81
2023-04-20T09:34:32.731Z,24.80
2023-04-20T09:35:32.370Z,24.81
2023-04-20T09:36:32.543Z,24.79
2023-04-20T09:37:32.476Z,24.77
2023-04-20T09:38:32.553Z,24.76
2023-04-20T09:39:33.210Z,24.75
2023-04-20T09:40:32.552Z,24.74
2023-04-20T09:41:32.649Z,24.74
2023-04-20T09:42:32.731Z,24.73
2023-04-20T09:43:32.700Z,24.72
2023-04-20T09:44:33.318Z,24.71
2023-04-20T09:45:32.861Z,24.71
2023-04-20T09:46:32.870Z,24.71
2023-04-20T09:47:32.905Z,24.72
2023-04-20T09:48:32.953Z,24.72
2023-04-20T09:49:33.003Z,24.72
2023-04-20T09:50:48.167Z,24.71
2023-04-20T09:51:34.038Z,24.70
2023-04-20T09:52:33.042Z,24.70
2023-04-20T09:53:33.035Z,24.71
2023-04-20T09:54:33.027Z,24.70
2023-04-20T09:55:33.030Z,24.70
2023-04-20T09:56:33.010Z,24.71
2023-04-20T09:57:33.037Z,24.72
2023-04-20T09:58:33.119Z,24.70
2023-04-20T09:59:33.054Z,24.71
2023-04-20T10:00:33.226Z,24.71
2023-04-20T10:01:33.181Z,24.71
2023-04-20T10:02:33.317Z,24.70
2023-04-20T10:03:33.440Z,24.70
2023-04-20T10:04:33.444Z,24.71
2023-04-20T10:05:33.399Z,24.70
2023-04-20T10:06:33.405Z,24.69
2023-04-20T10:07:33.496Z,24.65
2023-04-20T10:08:33.552Z,24.60
2023-04-20T10:09:33.594Z,24.57
2023-04-20T10:10:33.655Z,24.52
2023-04-20T10:11:41.205Z,24.49
2023-04-20T10:12:34.739Z,24.46
2023-04-20T10:13:33.757Z,24.42
2023-04-20T10:14:33.715Z,24.37
2023-04-20T10:15:33.688Z,24.34
2023-04-20T10:16:33.754Z,24.31
2023-04-20T10:17:33.803Z,24.28
2023-04-20T10:18:33.791Z,24.26
2023-04-20T10:19:33.802Z,24.23
2023-04-20T10:20:33.676Z,24.21
2023-04-20T10:21:33.726Z,24.19
2023-04-20T10:22:33.893Z,24.17
2023-04-20T10:23:33.683Z,24.16
2023-04-20T10:24:33.712Z,24.17
2023-04-20T10:25:33.953Z,24.17
2023-04-20T10:26:33.812Z,24.17
2023-04-20T10:27:33.798Z,24.19
2023-04-20T10:28:33.820Z,24.16
2023-04-20T10:29:36.455Z,24.15
2023-04-20T10:30:33.753Z,24.17
2023-04-20T10:31:33.905Z,24.23
2023-04-20T10:32:33.806Z,24.27
2023-04-20T10:33:33.736Z,24.31
2023-04-20T10:34:34.340Z,24.32
2023-04-20T10:35:33.742Z,24.34
2023-04-20T10:36:33.737Z,24.35
2023-04-20T10:37:33.837Z,24.34
2023-04-20T10:38:33.750Z,24.35
2023-04-20T10:39:33.748Z,24.35
2023-04-20T10:40:33.692Z,24.35
2023-04-20T10:41:33.736Z,24.36
2023-04-20T10:42:33.701Z,24.37
2023-04-20T10:43:33.696Z,24.38
2023-04-20T10:44:33.749Z,24.38
2023-04-20T10:45:34.032Z,24.36
2023-04-20T10:46:33.803Z,24.37
2023-04-20T10:47:33.844Z,24.38
2023-04-20T10:48:33.642Z,24.38
2023-04-20T10:49:33.754Z,24.39
2023-04-20T10:50:33.710Z,24.41
2023-04-20T10:51:33.644Z,24.42
2023-04-20T10:52:34.223Z,24.42
2023-04-20T10:53:33.686Z,24.42
2023-04-20T10:54:33.645Z,24.43
2023-04-20T10:55:33.676Z,24.43
2023-04-20T10:56:33.697Z,24.43
2023-04-20T10:57:34.220Z,24.43
2023-04-20T10:58:33.688Z,24.43
2023-04-20T10:59:33.575Z,24.43
2023-04-20T11:00:33.565Z,24.43
2023-04-20T11:01:33.552Z,24.43
2023-04-20T11:02:33.598Z,24.43
2023-04-20T11:03:33.642Z,24.42
2023-04-20T11:04:33.647Z,24.42
2023-04-20T11:05:33.674Z,24.41
2023-04-20T11:06:33.741Z,24.41
2023-04-20T11:07:33.833Z,24.41
2023-04-20T11:08:33.843Z,24.40
2023-04-20T11:09:33.915Z,24.41
2023-04-20T11:10:34.025Z,24.41
2023-04-20T11:11:34.019Z,24.41
2023-04-20T11:12:34.153Z,24.40
2023-04-20T11:13:34.138Z,24.40
2023-04-20T11:14:34.371Z,24.39
2023-04-20T11:15:34.284Z,24.39
2023-04-20T11:16:48.018Z,24.39
2023-04-20T11:17:35.413Z,24.40
2023-04-20T11:18:34.297Z,24.40
2023-04-20T11:19:34.334Z,24.40
2023-04-20T11:20:34.315Z,24.40
2023-04-20T11:21:34.334Z,24.40
2023-04-20T11:22:34.263Z,24.39
2023-04-20T11:23:34.328Z,24.38
2023-04-20T11:24:34.337Z,24.38
2023-04-20T11:25:34.358Z,24.37
2023-04-20T11:26:34.453Z,24.36
2023-04-20T11:27:34.474Z,24.36
2023-04-20T11:28:34.579Z,24.35
2023-04-20T11:29:34.623Z,24.35
2023-04-20T11:30:34.670Z,24.34
2023-04-20T11:31:34.816Z,24.34
2023-04-20T11:32:35.952Z,24.33
2023-04-20T11:33:34.915Z,24.32
2023-04-20T11:34:34.915Z,24.33
2023-04-20T11:35:35.006Z,24.32
2023-04-20T11:36:35.029Z,24.32
2023-04-20T11:37:35.099Z,24.32
2023-04-20T11:38:35.162Z,24.32
2023-04-20T11:39:35.301Z,24.31
2023-04-20T11:40:35.325Z,24.31
2023-04-20T11:41:35.388Z,24.31
2023-04-20T11:42:35.424Z,24.30
2023-04-20T11:43:35.493Z,24.31
2023-04-20T11:44:35.769Z,24.31
2023-04-20T11:45:36.556Z,24.31
2023-04-20T11:46:35.735Z,24.30
2023-04-20T11:47:35.771Z,24.31
2023-04-20T11:48:35.793Z,24.29
2023-04-20T11:49:36.271Z,24.30
2023-04-20T11:50:35.911Z,24.29
2023-04-20T11:51:35.976Z,24.30
2023-04-20T11:52:36.038Z,24.29
2023-04-20T11:53:36.091Z,24.29
2023-04-20T11:54:36.286Z,24.29
2023-04-20T11:55:36.228Z,24.29
2023-04-20T11:56:36.309Z,24.28
2023-04-20T11:57:36.363Z,24.28
2023-04-20T11:58:36.388Z,24.28
2023-04-20T11:59:36.774Z,24.28
2023-04-20T12:00:36.507Z,24.27
2023-04-20T12:01:36.545Z,24.26
2023-04-20T12:02:36.732Z,24.26
2023-04-20T12:03:36.825Z,24.26
2023-04-20T12:04:36.939Z,24.27
2023-04-20T12:05:37.800Z,24.27
2023-04-20T12:06:36.850Z,24.28
2023-04-20T12:07:36.899Z,24.28
2023-04-20T12:08:36.947Z,24.28
2023-04-20T12:09:37.031Z,24.28
2023-04-20T12:10:37.066Z,24.28
2023-04-20T12:11:37.140Z,24.29
2023-04-20T12:12:37.148Z,24.28
2023-04-20T12:13:37.297Z,24.28
2023-04-20T12:14:37.318Z,24.29
2023-04-20T12:15:37.379Z,24.29
2023-04-20T12:16:37.455Z,24.30
2023-04-20T12:17:37.514Z,24.30
2023-04-20T12:18:37.544Z,24.30
2023-04-20T12:19:39.317Z,24.30
2023-04-20T12:20:37.670Z,24.32
2023-04-20T12:21:37.700Z,24.31
2023-04-20T12:22:37.783Z,24.31
2023-04-20T12:23:37.826Z,24.32
2023-04-20T12:24:37.909Z,24.31
2023-04-20T12:25:37.941Z,24.31
2023-04-20T12:26:38.971Z,24.33
2023-04-20T12:27:38.051Z,24.32
2023-04-20T12:28:38.181Z,24.32
2023-04-20T12:29:38.186Z,24.32
2023-04-20T12:30:38.260Z,24.31
2023-04-20T12:31:38.378Z,24.32
2023-04-20T12:32:38.423Z,24.32
2023-04-20T12:33:38.498Z,24.33
2023-04-20T12:34:38.568Z,24.33
2023-04-20T12:35:38.572Z,24.33
2023-04-20T12:36:38.651Z,24.32
2023-04-20T12:37:38.708Z,24.32
2023-04-20T12:38:38.773Z,24.33
2023-04-20T12:39:38.846Z,24.33
2023-04-20T12:40:38.867Z,24.33
2023-04-20T12:41:38.956Z,24.34
2023-04-20T12:42:39.030Z,24.34
2023-04-20T12:43:39.090Z,24.33
2023-04-20T12:44:39.136Z,24.34
2023-04-20T12:45:39.180Z,24.34
2023-04-20T12:46:39.261Z,24.35
2023-04-20T12:47:39.335Z,24.35
2023-04-20T12:48:39.375Z,24.35
2023-04-20T12:49:39.850Z,24.35
2023-04-20T12:50:39.518Z,24.35
2023-04-20T12:51:39.626Z,24.35
2023-04-20T12:52:39.735Z,24.35
2023-04-20T12:53:39.699Z,24.35